Time;durP1;ratioP1;P1;durP2;ratioP2;P2;SDS_P1;SDS_P2;PMS_P1;PMS_P2;Temp;Humidity;BMP_temperature;BMP_pressure;BME280_temperature;BME280_humidity;BME280_pressure;Samples;Min_cycle;Max_cycle;Signal;HPM_P1;HPM_P2
2022/11/21 00:00:30;;;;;;;;;;;;;;;4.72;71.52;99905.03;5331901;32;35348;-74
2022/11/21 00:03:32;;;;;;;;;;;;;;;5.25;69.57;99892.47;5334446;32;35066;-68
2022/11/21 00:06:34;;;;;;;;;;;;;;;5.67;66.14;99887.91;5304478;32;35146;-67
2022/11/21 00:09:36;;;;;;;;;;;;;;;3.75;74.44;99882.81;5345681;32;44433;-74
2022/11/21 00:12:38;;;;;;;;;;;;;;;4.21;73.35;99886.22;5324484;32;35391;-73
2022/11/21 00:15:40;;;;;;;;;;;;;;;4.52;70.69;99874.28;5334919;32;35072;-72
2022/11/21 00:18:42;;;;;;;;;;;;;;;4.08;74.33;99873.47;5310726;32;34979;-73
2022/11/21 00:21:45;;;;;;;;;;;;;;;4.25;73.16;99860.12;5320212;32;34665;-74
2022/11/21 00:24:46;;;;;;;;;;;;;;;4.26;73.78;99861.84;5319930;32;34902;-74
2022/11/21 00:27:54;;;;;;;;;;;;;;;4.17;73.02;99859.41;5310866;32;35365;-73
2022/11/21 00:30:56;;;;;;;;;;;;;;;4.12;73.15;99861.25;5329155;32;34773;-74
2022/11/21 00:33:58;;;;;;;;;;;;;;;4.59;71.79;99856.75;5310580;32;34419;-67
2022/11/21 00:37:00;;;;;;;;;;;;;;;5.63;67.51;99861.94;5324561;32;35522;-75
2022/11/21 00:40:02;;;;;;;;;;;;;;;4.32;71.41;99864.31;5309278;32;35386;-74
2022/11/21 00:43:04;;;;;;;;;;;;;;;3.85;73.09;99857.47;5328358;32;35981;-67
2022/11/21 00:46:06;;;;;;;;;;;;;;;4.02;73.78;99846.75;5332994;32;44835;-73
2022/11/21 00:49:08;;;;;;;;;;;;;;;3.33;76.92;99847.22;5297966;32;34897;-72
2022/11/21 00:52:09;;;;;;;;;;;;;;;3.33;77.66;99842.03;5317651;32;35077;-67
2022/11/21 00:55:11;;;;;;;;;;;;;;;4.23;74.35;99828.06;5309923;32;35215;-74
2022/11/21 00:58:13;;;;;;;;;;;;;;;4.14;73.88;99843.88;5327450;32;35468;-72
2022/11/21 01:01:15;;;;;;;;;;;;;;;4.66;69.45;99831.44;5312200;32;35653;-74
2022/11/21 01:04:17;;;;;;;;;;;;;;;3.25;76.14;99849.97;5312812;32;34485;-75
2022/11/21 01:07:19;;;;;;;;;;;;;;;2.98;77.19;99854.75;5314060;32;35346;-67
2022/11/21 01:10:21;;;;;;;;;;;;;;;3.67;76.44;99843.13;5322344;32;35764;-73
2022/11/21 01:13:23;;;;;;;;;;;;;;;3.45;75.67;99831.41;5326980;32;35383;-67
2022/11/21 01:16:25;;;;;;;;;;;;;;;3.43;76.17;99841.84;5317042;32;34933;-68
2022/11/21 01:19:27;;;;;;;;;;;;;;;3.70;75.56;99840.47;5327083;32;34967;-67
2022/11/21 01:22:29;;;;;;;;;;;;;;;4.02;73.43;99838.94;5310694;32;35139;-67
2022/11/21 01:25:34;;;;;;;;;;;;;;;3.93;74.07;99828.72;5315186;32;34830;-67
2022/11/21 01:28:35;;;;;;;;;;;;;;;3.09;78.70;99831.22;5341296;32;46471;-68
2022/11/21 01:31:37;;;;;;;;;;;;;;;3.33;78.33;99831.66;5328320;32;34753;-73
2022/11/21 01:34:39;;;;;;;;;;;;;;;3.22;79.42;99829.22;5347108;32;35147;-67
2022/11/21 01:37:41;;;;;;;;;;;;;;;3.87;75.67;99826.28;5327350;32;35548;-73
2022/11/21 01:40:43;;;;;;;;;;;;;;;4.00;73.45;99823.38;5345595;32;35644;-75
2022/11/21 01:43:46;;;;;;;;;;;;;;;4.62;70.95;99817.63;5322883;32;35489;-67
2022/11/21 01:46:48;;;;;;;;;;;;;;;3.67;74.51;99816.25;5307473;32;34518;-74
2022/11/21 01:49:50;;;;;;;;;;;;;;;4.00;73.84;99809.53;5345538;32;34747;-73
2022/11/21 01:52:52;;;;;;;;;;;;;;;4.28;71.35;99810.63;5316714;32;35847;-68
2022/11/21 01:55:54;;;;;;;;;;;;;;;3.31;77.19;99818.69;5336307;32;34905;-72
2022/11/21 01:58:56;;;;;;;;;;;;;;;3.51;78.13;99813.97;5309838;32;34587;-68
2022/11/21 02:01:58;;;;;;;;;;;;;;;3.47;76.37;99807.12;5347088;32;34929;-73
2022/11/21 02:05:00;;;;;;;;;;;;;;;3.89;74.95;99801.94;5323004;32;34793;-73
2022/11/21 02:08:06;;;;;;;;;;;;;;;4.36;74.31;99807.84;5312161;32;35889;-74
2022/11/21 02:11:29;;;;;;;;;;;;;;;4.03;72.98;99796.44;5329788;32;44610;-73
2022/11/21 02:14:30;;;;;;;;;;;;;;;3.81;76.01;99816.84;5321436;32;34677;-68
2022/11/21 02:17:32;;;;;;;;;;;;;;;4.06;74.48;99823.25;5335987;32;34922;-74
2022/11/21 02:20:34;;;;;;;;;;;;;;;3.95;73.51;99811.37;5309203;32;35715;-67
2022/11/21 02:23:39;;;;;;;;;;;;;;;5.20;69.21;99802.31;5322427;32;46237;-67
2022/11/21 02:26:40;;;;;;;;;;;;;;;4.49;70.69;99798.84;5321840;32;35073;-74
2022/11/21 02:29:42;;;;;;;;;;;;;;;4.29;71.03;99796.72;5311360;32;35329;-68
2022/11/21 02:32:46;;;;;;;;;;;;;;;3.49;74.56;99804.50;5329511;32;34443;-74
2022/11/21 02:35:57;;;;;;;;;;;;;;;4.13;72.96;99800.56;5312321;32;35614;-67
2022/11/21 02:38:59;;;;;;;;;;;;;;;4.14;73.54;99797.06;5330697;32;34360;-68
2022/11/21 02:42:01;;;;;;;;;;;;;;;4.63;70.05;99794.16;5313141;32;34820;-67
2022/11/21 02:45:13;;;;;;;;;;;;;;;4.20;71.86;99799.53;5327418;32;35473;-74
2022/11/21 02:48:15;;;;;;;;;;;;;;;3.83;74.65;99789.06;5333204;32;45226;-67
2022/11/21 02:51:16;;;;;;;;;;;;;;;4.16;73.41;99795.28;5315715;32;34898;-75
2022/11/21 02:54:18;;;;;;;;;;;;;;;3.68;75.53;99792.84;5331595;32;35467;-75
2022/11/21 02:57:20;;;;;;;;;;;;;;;3.66;74.71;99793.75;5313270;32;34677;-66
2022/11/21 03:00:23;;;;;;;;;;;;;;;4.40;72.72;99798.22;5346301;32;35434;-73
2022/11/21 03:03:25;;;;;;;;;;;;;;;3.44;74.78;99789.00;5313576;32;34937;-67
2022/11/21 03:06:27;;;;;;;;;;;;;;;3.74;75.24;99797.06;5289960;32;34802;-67
2022/11/21 03:09:28;;;;;;;;;;;;;;;3.31;74.96;99802.25;5318416;32;34791;-73
2022/11/21 03:12:30;;;;;;;;;;;;;;;3.52;74.28;99807.03;5311394;32;34996;-74
2022/11/21 03:15:33;;;;;;;;;;;;;;;3.14;75.68;99806.00;5329600;32;35532;-75
2022/11/21 03:18:34;;;;;;;;;;;;;;;3.68;73.70;99803.25;5297704;32;35116;-74
2022/11/21 03:21:36;;;;;;;;;;;;;;;3.26;74.23;99797.13;5337820;32;44839;-73
2022/11/21 03:24:38;;;;;;;;;;;;;;;2.94;76.81;99803.75;5322834;32;35196;-67
2022/11/21 03:27:40;;;;;;;;;;;;;;;2.68;76.66;99812.00;5324835;32;35222;-68
2022/11/21 03:30:42;;;;;;;;;;;;;;;2.86;76.65;99799.59;5345381;32;34331;-68
2022/11/21 03:33:44;;;;;;;;;;;;;;;2.96;76.26;99793.34;5319220;32;34604;-74
2022/11/21 03:36:45;;;;;;;;;;;;;;;3.36;74.70;99782.25;5343753;32;35494;-74
2022/11/21 03:39:47;;;;;;;;;;;;;;;2.46;78.51;99789.03;5327545;32;34668;-68
2022/11/21 03:42:49;;;;;;;;;;;;;;;3.14;74.76;99772.25;5345548;32;34742;-73
2022/11/21 03:45:51;;;;;;;;;;;;;;;3.10;74.94;99783.59;5331627;32;34810;-74
2022/11/21 03:48:53;;;;;;;;;;;;;;;3.76;72.15;99772.75;5329426;32;34390;-68
2022/11/21 03:51:55;;;;;;;;;;;;;;;2.99;75.49;99786.38;5333574;32;34750;-67
2022/11/21 03:54:57;;;;;;;;;;;;;;;2.82;77.05;99777.16;5326546;32;34236;-74
2022/11/21 03:57:58;;;;;;;;;;;;;;;2.88;76.92;99770.13;5332237;32;34736;-73
2022/11/21 04:01:00;;;;;;;;;;;;;;;3.12;76.43;99768.84;5310857;32;35999;-67
2022/11/21 04:04:03;;;;;;;;;;;;;;;2.90;74.08;99758.00;5334785;32;34360;-72
2022/11/21 04:07:04;;;;;;;;;;;;;;;2.42;77.18;99760.53;5302240;32;35304;-68
2022/11/21 04:10:06;;;;;;;;;;;;;;;2.32;79.45;99760.69;5310032;32;45609;-73
2022/11/21 04:13:08;;;;;;;;;;;;;;;2.58;77.80;99753.38;5328881;32;35828;-72
2022/11/21 04:16:10;;;;;;;;;;;;;;;2.11;79.60;99754.09;5330131;32;34719;-74
2022/11/21 04:19:12;;;;;;;;;;;;;;;2.14;79.08;99759.25;5346392;32;35363;-67
2022/11/21 04:22:14;;;;;;;;;;;;;;;2.23;79.20;99760.84;5327246;32;35099;-67
2022/11/21 04:25:15;;;;;;;;;;;;;;;2.39;77.95;99746.75;5340342;32;34731;-67
2022/11/21 04:28:17;;;;;;;;;;;;;;;2.03;78.34;99754.22;5329333;32;35537;-73
2022/11/21 04:31:19;;;;;;;;;;;;;;;2.28;78.21;99741.75;5319271;32;34233;-75
2022/11/21 04:34:21;;;;;;;;;;;;;;;2.44;77.35;99734.56;5337060;32;35388;-73
2022/11/21 04:37:23;;;;;;;;;;;;;;;3.10;75.43;99733.41;5317098;32;35164;-74
2022/11/21 04:40:25;;;;;;;;;;;;;;;3.07;74.91;99726.50;5343050;32;35141;-67
2022/11/21 04:43:27;;;;;;;;;;;;;;;2.50;75.83;99734.44;5327609;32;34476;-73
2022/11/21 04:46:28;;;;;;;;;;;;;;;2.43;76.45;99728.50;5338756;32;34970;-74
2022/11/21 04:49:30;;;;;;;;;;;;;;;2.44;77.12;99729.38;5313026;32;35772;-75
2022/11/21 04:52:32;;;;;;;;;;;;;;;2.25;77.95;99734.00;5311294;32;34520;-73
2022/11/21 04:55:34;;;;;;;;;;;;;;;2.91;74.38;99717.31;5324894;32;35324;-67
2022/11/21 04:58:36;;;;;;;;;;;;;;;2.39;74.72;99724.28;5310398;32;46446;-67
2022/11/21 05:01:38;;;;;;;;;;;;;;;2.64;76.30;99701.38;5327586;32;35234;-74
2022/11/21 05:04:40;;;;;;;;;;;;;;;2.20;78.09;99722.88;5319299;32;35565;-74
2022/11/21 05:07:42;;;;;;;;;;;;;;;3.29;74.93;99711.37;5321774;32;38467;-74
2022/11/21 05:14:04;;;;;;;;;;;;;;;4.00;69.10;99728.91;5312076;32;36129;-67
2022/11/21 05:17:06;;;;;;;;;;;;;;;4.05;67.89;99724.44;5338143;32;46840;-73
2022/11/21 05:20:08;;;;;;;;;;;;;;;3.04;71.15;99715.34;5329636;32;35700;-73
2022/11/21 05:23:10;;;;;;;;;;;;;;;3.35;71.31;99716.47;5335406;32;34558;-76
2022/11/21 05:26:12;;;;;;;;;;;;;;;3.32;72.04;99721.69;5313677;32;35881;-67
2022/11/21 05:29:14;;;;;;;;;;;;;;;3.44;71.24;99716.25;5325705;32;34496;-67
2022/11/21 05:32:15;;;;;;;;;;;;;;;3.84;70.05;99717.13;5324247;32;35495;-68
2022/11/21 05:35:17;;;;;;;;;;;;;;;4.26;68.45;99704.91;5306683;32;35646;-69
2022/11/21 05:38:19;;;;;;;;;;;;;;;4.09;69.05;99697.50;5308905;32;35065;-68
2022/11/21 05:41:21;;;;;;;;;;;;;;;3.07;73.27;99713.53;5313922;32;34618;-73
2022/11/21 05:44:23;;;;;;;;;;;;;;;3.75;70.33;99698.28;5337815;32;37439;-73
2022/11/21 05:47:25;;;;;;;;;;;;;;;3.49;72.03;99693.63;5323829;32;34821;-74
2022/11/21 05:50:26;;;;;;;;;;;;;;;2.93;73.78;99697.38;5318712;32;35097;-67
2022/11/21 05:53:28;;;;;;;;;;;;;;;3.20;73.57;99702.03;5322641;32;35354;-73
2022/11/21 05:56:30;;;;;;;;;;;;;;;3.15;75.16;99706.44;5315097;32;34156;-67
2022/11/21 05:59:32;;;;;;;;;;;;;;;3.08;76.18;99707.44;5328434;32;34345;-68
2022/11/21 06:06:05;;;;;;;;;;;;;;;4.07;72.17;99694.09;5321596;32;35009;-67
2022/11/21 06:09:07;;;;;;;;;;;;;;;4.42;70.16;99690.59;5312988;32;46137;-74
2022/11/21 06:12:08;;;;;;;;;;;;;;;4.25;71.15;99698.84;5308338;32;35467;-74
2022/11/21 06:15:10;;;;;;;;;;;;;;;3.98;72.48;99702.06;5330483;32;34475;-67
2022/11/21 06:18:12;;;;;;;;;;;;;;;4.38;71.95;99708.94;5318779;32;34781;-73
2022/11/21 06:21:18;;;;;;;;;;;;;;;4.23;71.99;99699.75;5342896;32;32652;-67
2022/11/21 06:24:20;;;;;;;;;;;;;;;3.60;75.40;99700.34;5313229;32;34840;-68
2022/11/21 06:27:23;;;;;;;;;;;;;;;3.84;74.79;99706.75;5319292;32;34874;-68
2022/11/21 06:30:25;;;;;;;;;;;;;;;4.21;74.34;99706.75;5308502;32;35517;-68
2022/11/21 06:33:27;;;;;;;;;;;;;;;4.03;75.10;99700.22;5303633;32;35352;-66
2022/11/21 06:36:28;;;;;;;;;;;;;;;4.02;74.71;99716.72;5338040;32;34407;-71
2022/11/21 06:39:30;;;;;;;;;;;;;;;4.80;71.99;99707.84;5315773;32;35525;-72
2022/11/21 06:42:32;;;;;;;;;;;;;;;3.78;73.74;99707.72;5327670;32;34269;-68
2022/11/21 06:45:35;;;;;;;;;;;;;;;3.89;75.09;99717.91;5309496;32;35454;-74
2022/11/21 06:48:37;;;;;;;;;;;;;;;3.26;76.83;99722.69;5301630;32;44559;-73
2022/11/21 06:54:50;;;;;;;;;;;;;;;3.80;74.43;99735.41;5373333;27;20035;-95
2022/11/21 06:57:56;;;;;;;;;;;;;;;2.94;76.13;99745.81;5341816;32;35454;-96
2022/11/21 07:01:40;;;;;;;;;;;;;;;3.67;74.44;99748.69;5331153;32;35783;-95
2022/11/21 07:05:05;;;;;;;;;;;;;;;4.02;72.87;99754.00;5324093;32;35102;-93
2022/11/21 07:08:18;;;;;;;;;;;;;;;3.13;76.13;99754.09;5313833;32;33619;-95
2022/11/21 07:16:04;;;;;;;;;;;;;;;;;;;;;
2022/11/21 07:19:24;;;;;;;;;;;;;;;4.23;71.69;99757.84;5278369;28;35684;-63
2022/11/21 07:22:27;;;;;;;;;;;;;;;4.04;71.27;99757.41;5249656;33;36361;-65
2022/11/21 07:25:28;;;;;;;;;;;;;;;3.60;73.06;99758.34;5245379;33;36113;-64
2022/11/21 07:28:37;;;;;;;;;;;;;;;4.10;70.43;99759.00;5262850;33;44745;-63
2022/11/21 07:31:39;;;;;;;;;;;;;;;4.31;69.67;99761.09;5257168;33;35627;-64
2022/11/21 07:34:41;;;;;;;;;;;;;;;4.12;71.44;99753.75;5248043;33;34337;-66
2022/11/21 07:37:42;;;;;;;;;;;;;;;3.39;73.15;99758.81;5263375;33;35750;-66
2022/11/21 07:40:45;;;;;;;;;;;;;;;3.79;72.28;99757.06;5251462;33;34582;-66
2022/11/21 07:43:46;;;;;;;;;;;;;;;4.27;70.75;99751.69;5254451;33;35861;-67
2022/11/21 07:46:48;;;;;;;;;;;;;;;4.28;70.17;99757.75;5255181;33;34790;-72
2022/11/21 07:49:50;;;;;;;;;;;;;;;3.50;73.98;99757.69;5255072;33;35365;-69
2022/11/21 07:52:56;;;;;;;;;;;;;;;4.26;72.48;99762.97;5287791;32;34166;-65
2022/11/21 07:55:58;;;;;;;;;;;;;;;3.29;73.57;99759.88;5342554;32;34363;-65
2022/11/21 07:59:00;;;;;;;;;;;;;;;3.69;72.72;99765.97;5348500;32;34389;-67
2022/11/21 08:02:02;;;;;;;;;;;;;;;4.29;71.66;99775.06;5346067;32;45098;-62
2022/11/21 08:05:05;;;;;;;;;;;;;;;3.40;74.63;99779.53;5347860;32;35189;-68
2022/11/21 08:08:07;;;;;;;;;;;;;;;3.79;73.05;99779.63;5330300;32;34733;-65
2022/11/21 08:11:09;;;;;;;;;;;;;;;5.06;68.58;99776.62;5349768;32;35580;-81
2022/11/21 08:14:11;;;;;;;;;;;;;;;4.94;67.27;99777.78;5342349;32;34322;-78
2022/11/21 08:17:13;;;;;;;;;;;;;;;4.00;72.02;99789.59;5346517;32;36009;-72
2022/11/21 08:20:16;;;;;;;;;;;;;;;3.84;73.29;99792.53;5332332;32;34584;-69
2022/11/21 08:23:17;;;;;;;;;;;;;;;3.45;74.40;99787.25;5341474;32;35003;-63
2022/11/21 08:26:19;;;;;;;;;;;;;;;5.09;69.40;99774.81;5356543;32;34376;-81
2022/11/21 08:29:21;;;;;;;;;;;;;;;4.92;69.40;99787.41;5345080;32;34439;-78
2022/11/21 08:32:23;;;;;;;;;;;;;;;5.25;67.62;99788.25;5345718;32;34422;-72
2022/11/21 08:35:26;;;;;;;;;;;;;;;3.99;70.75;99800.00;5360938;32;34399;-74
2022/11/21 08:38:28;;;;;;;;;;;;;;;3.49;75.55;99791.53;5339219;32;35471;-80
2022/11/21 08:44:50;;;;;;;;;;;;;;;3.49;75.54;99796.72;5355101;32;35959;-79
2022/11/21 08:47:52;;;;;;;;;;;;;;;4.67;71.50;99792.34;5349074;32;37061;-77
2022/11/21 08:50:58;;;;;;;;;;;;;;;4.72;71.77;99800.91;5356586;32;34681;-80
2022/11/21 08:53:59;;;;;;;;;;;;;;;4.95;70.60;99796.88;5348813;32;36644;-82
2022/11/21 08:57:03;;;;;;;;;;;;;;;4.95;69.84;99807.28;5364492;32;44315;-76
2022/11/21 09:00:06;;;;;;;;;;;;;;;4.49;72.00;99801.44;5346890;32;37906;-73
2022/11/21 09:03:08;;;;;;;;;;;;;;;5.02;70.22;99804.47;5337396;32;35627;-71
2022/11/21 09:06:11;;;;;;;;;;;;;;;4.82;71.39;99802.37;5354572;32;35400;-71
2022/11/21 09:09:13;;;;;;;;;;;;;;;4.60;70.34;99811.63;5344731;32;34371;-81
2022/11/21 09:12:14;;;;;;;;;;;;;;;4.99;69.73;99796.75;5352357;32;35240;-69
2022/11/21 09:18:37;;;;;;;;;;;;;;;4.69;69.94;99789.72;5352162;32;44459;-67
2022/11/21 09:21:39;;;;;;;;;;;;;;;4.81;69.90;99781.59;5348464;32;34367;-69
2022/11/21 09:24:41;;;;;;;;;;;;;;;4.25;70.77;99810.72;5347813;32;34132;-69
2022/11/21 09:27:43;;;;;;;;;;;;;;;4.31;70.06;99800.12;5360096;32;34269;-65
2022/11/21 09:30:45;;;;;;;;;;;;;;;4.59;70.61;99800.34;5328187;32;37074;-67
2022/11/21 09:33:47;;;;;;;;;;;;;;;4.48;71.22;99785.88;5348640;32;33376;-71
2022/11/21 09:36:55;;;;;;;;;;;;;;;5.05;69.78;99786.19;5348643;32;35454;-66
2022/11/21 09:39:57;;;;;;;;;;;;;;;5.29;69.95;99781.22;5355586;32;35410;-66
2022/11/21 09:43:10;;;;;;;;;;;;;;;5.60;67.34;99786.41;5350240;32;34122;-65
2022/11/21 09:46:12;;;;;;;;;;;;;;;5.04;70.03;99786.22;5344989;32;35301;-68
2022/11/21 09:49:15;;;;;;;;;;;;;;;5.65;68.14;99789.75;5349882;32;35204;-66
2022/11/21 09:52:16;;;;;;;;;;;;;;;6.66;62.83;99787.56;5340666;32;34209;-71
2022/11/21 09:55:35;;;;;;;;;;;;;;;5.16;68.64;99791.12;5370032;32;34293;-68
2022/11/21 09:58:55;;;;;;;;;;;;;;;4.77;71.23;99783.44;5340795;32;45072;-73
2022/11/21 10:01:58;;;;;;;;;;;;;;;5.81;66.46;99788.44;5362692;32;35752;-68
2022/11/21 10:04:59;;;;;;;;;;;;;;;5.61;67.48;99786.41;5360048;32;34765;-66
2022/11/21 10:08:04;;;;;;;;;;;;;;;6.04;66.70;99786.91;5352704;32;43584;-67
2022/11/21 10:11:26;;;;;;;;;;;;;;;6.46;64.12;99766.47;5367693;32;35607;-65
2022/11/21 10:14:36;;;;;;;;;;;;;;;4.95;70.75;99786.44;5338294;32;34360;-67
2022/11/21 10:17:44;;;;;;;;;;;;;;;6.43;65.75;99777.84;5363986;32;44412;-65
2022/11/21 10:20:46;;;;;;;;;;;;;;;5.68;68.36;99774.91;5337727;32;34324;-71
2022/11/21 10:24:03;;;;;;;;;;;;;;;5.04;69.28;99773.22;5352921;32;34721;-69
2022/11/21 10:27:10;;;;;;;;;;;;;;;5.42;70.17;99766.97;5372706;32;44445;-69
2022/11/21 10:30:13;;;;;;;;;;;;;;;5.34;70.38;99774.13;5339615;32;35394;-67
2022/11/21 10:33:24;;;;;;;;;;;;;;;6.21;67.74;99763.78;5355250;32;35016;-67
2022/11/21 10:36:29;;;;;;;;;;;;;;;5.55;69.75;99757.91;5363750;32;35593;-72
2022/11/21 10:39:40;;;;;;;;;;;;;;;5.54;69.07;99750.97;5330826;32;44458;-70
2022/11/21 10:42:48;;;;;;;;;;;;;;;6.17;67.74;99739.53;5367732;32;34379;-73
2022/11/21 10:45:51;;;;;;;;;;;;;;;6.40;66.90;99740.56;5356474;32;34350;-69
2022/11/21 10:48:59;;;;;;;;;;;;;;;6.88;64.97;99738.06;5344505;32;34892;-68
2022/11/21 10:52:06;;;;;;;;;;;;;;;5.89;67.13;99741.25;5355601;32;44752;-70
2022/11/21 10:55:10;;;;;;;;;;;;;;;6.30;67.35;99744.38;5353555;32;35970;-72
2022/11/21 10:58:18;;;;;;;;;;;;;;;6.72;64.96;99740.34;5347546;32;35357;-72
2022/11/21 11:01:29;;;;;;;;;;;;;;;8.21;59.36;99734.91;5352510;32;35550;-69
2022/11/21 11:04:31;;;;;;;;;;;;;;;7.49;61.65;99733.28;5343379;32;44259;-66
2022/11/21 11:08:05;;;;;;;;;;;;;;;6.04;66.38;99745.19;5338787;32;34239;-69
2022/11/21 11:11:09;;;;;;;;;;;;;;;6.09;66.12;99738.91;5346793;32;44481;-65
2022/11/21 11:14:11;;;;;;;;;;;;;;;7.37;63.20;99735.50;5353185;32;34326;-68
2022/11/21 11:17:13;;;;;;;;;;;;;;;6.31;64.78;99733.91;5344487;32;34260;-69
2022/11/21 11:20:27;;;;;;;;;;;;;;;5.94;67.02;99740.25;5337470;32;34341;-65
2022/11/21 11:23:29;;;;;;;;;;;;;;;6.63;64.43;99724.13;5347890;32;34193;-67
2022/11/21 11:26:31;;;;;;;;;;;;;;;7.37;63.05;99715.44;5339620;32;44747;-66
2022/11/21 11:29:34;;;;;;;;;;;;;;;6.61;64.79;99723.34;5353219;32;34262;-64
2022/11/21 11:32:38;;;;;;;;;;;;;;;6.61;64.69;99715.50;5336937;32;35604;-70
2022/11/21 11:35:40;;;;;;;;;;;;;;;6.58;65.14;99707.78;5353458;32;34312;-70
2022/11/21 11:38:43;;;;;;;;;;;;;;;7.43;64.03;99701.28;5346281;32;35586;-69
2022/11/21 11:48:38;;;;;;;;;;;;;;;9.09;57.19;99681.47;5349924;32;44501;-65
2022/11/21 11:52:01;;;;;;;;;;;;;;;8.92;57.60;99679.56;5348671;32;34605;-68
2022/11/21 11:55:06;;;;;;;;;;;;;;;9.19;57.29;99671.41;5345825;32;44664;-63
2022/11/21 11:58:27;;;;;;;;;;;;;;;9.28;56.16;99671.00;5364017;32;35039;-63
2022/11/21 12:01:32;;;;;;;;;;;;;;;8.52;58.86;99669.09;5357772;32;35469;-63
2022/11/21 12:04:39;;;;;;;;;;;;;;;9.29;57.49;99661.34;5350459;32;44828;-66
2022/11/21 12:07:43;;;;;;;;;;;;;;;9.25;57.50;99657.16;5355943;32;35605;-65
2022/11/21 12:18:19;;;;;;;;;;;;;;;9.65;57.06;99641.28;5334551;32;34313;-68
2022/11/21 12:21:22;;;;;;;;;;;;;;;9.78;56.77;99634.53;5331623;32;34293;-69
2022/11/21 12:24:24;;;;;;;;;;;;;;;9.42;57.52;99636.28;5342828;32;34201;-68
2022/11/21 12:27:27;;;;;;;;;;;;;;;8.99;59.23;99622.47;5345096;32;34272;-67
2022/11/21 12:30:48;;;;;;;;;;;;;;;9.74;56.76;99621.66;5337190;32;36158;-66
2022/11/21 12:33:57;;;;;;;;;;;;;;;9.64;57.45;99634.34;5350881;32;36826;-66
2022/11/21 12:37:19;;;;;;;;;;;;;;;9.40;57.36;99625.88;5317221;32;33299;-73
2022/11/21 12:40:36;;;;;;;;;;;;;;;8.51;60.85;99634.19;5338218;32;33938;-66
2022/11/21 12:43:47;;;;;;;;;;;;;;;8.33;61.64;99624.47;5345250;32;44543;-68
2022/11/21 12:47:26;;;;;;;;;;;;;;;8.24;63.83;99622.22;5334520;32;34053;-70
2022/11/21 12:57:20;;;;;;;;;;;;;;;12.44;51.28;99612.50;5345226;32;34342;-68
2022/11/21 13:00:28;;;;;;;;;;;;;;;12.33;50.14;99614.06;5352750;32;34216;-67
2022/11/21 13:03:33;;;;;;;;;;;;;;;10.24;55.79;99605.22;5347047;32;35349;-68
2022/11/21 13:06:39;;;;;;;;;;;;;;;9.32;59.71;99620.09;5348949;32;44549;-67
2022/11/21 13:09:42;;;;;;;;;;;;;;;8.74;61.56;99617.47;5345343;32;34150;-65
2022/11/21 13:12:44;;;;;;;;;;;;;;;8.61;62.56;99622.38;5334656;32;34336;-67
2022/11/21 13:15:56;;;;;;;;;;;;;;;8.31;63.96;99626.31;5347337;32;34211;-73
2022/11/21 13:18:58;;;;;;;;;;;;;;;8.02;65.07;99632.72;5306627;32;1059136;-66
2022/11/21 13:22:00;;;;;;;;;;;;;;;7.99;65.76;99633.72;5340406;32;34182;-68
2022/11/21 13:25:03;;;;;;;;;;;;;;;8.47;64.93;99622.13;5352411;32;44506;-66
2022/11/21 13:28:17;;;;;;;;;;;;;;;8.82;63.39;99623.25;5342257;32;34582;-69
2022/11/21 13:31:26;;;;;;;;;;;;;;;8.84;63.11;99612.69;5356046;32;34466;-66
2022/11/21 13:34:32;;;;;;;;;;;;;;;8.67;64.64;99624.75;5322397;32;35998;-70
2022/11/21 13:37:53;;;;;;;;;;;;;;;9.44;62.16;99619.53;5360052;32;45266;-70
2022/11/21 13:44:31;;;;;;;;;;;;;;;9.39;61.16;99621.50;5351743;32;35562;-67
2022/11/21 13:47:36;;;;;;;;;;;;;;;10.78;58.27;99609.44;5358112;32;44703;-65
2022/11/21 13:50:45;;;;;;;;;;;;;;;10.44;56.18;99615.59;5346242;32;34362;-67
2022/11/21 13:53:55;;;;;;;;;;;;;;;10.40;56.12;99623.69;5362645;32;34242;-69
2022/11/21 13:57:05;;;;;;;;;;;;;;;9.60;57.95;99640.66;5344931;32;35233;-69
2022/11/21 14:00:10;;;;;;;;;;;;;;;8.66;61.24;99623.03;5361666;32;44602;-73
2022/11/21 14:03:28;;;;;;;;;;;;;;;8.67;60.79;99627.37;5361382;32;36056;-68
2022/11/21 14:06:34;;;;;;;;;;;;;;;8.06;62.35;99632.53;5349074;32;34987;-70
2022/11/21 14:09:37;;;;;;;;;;;;;;;7.80;63.25;99630.97;5368351;32;44670;-69
2022/11/21 14:12:39;;;;;;;;;;;;;;;7.35;64.71;99636.22;5341326;32;33606;-69
2022/11/21 14:15:57;;;;;;;;;;;;;;;7.65;64.30;99639.41;5360132;32;35406;-66
2022/11/21 14:18:59;;;;;;;;;;;;;;;7.40;65.29;99629.03;5324334;32;34267;-67
2022/11/21 14:22:01;;;;;;;;;;;;;;;7.44;65.05;99630.63;5335280;32;44561;-69
2022/11/21 14:25:09;;;;;;;;;;;;;;;7.05;66.66;99635.59;5364594;32;35691;-72
2022/11/21 14:28:22;;;;;;;;;;;;;;;7.18;67.01;99638.59;5352907;32;34298;-67
2022/11/21 14:31:24;;;;;;;;;;;;;;;6.64;69.09;99635.31;5341675;32;35707;-68
2022/11/21 14:34:27;;;;;;;;;;;;;;;7.27;66.87;99631.25;5333094;32;34528;-67
2022/11/21 14:37:30;;;;;;;;;;;;;;;7.01;68.21;99632.22;5341639;32;34120;-66
2022/11/21 14:40:32;;;;;;;;;;;;;;;7.27;67.44;99633.03;5355087;32;44452;-67
2022/11/21 14:43:34;;;;;;;;;;;;;;;6.94;68.39;99645.56;5348827;32;34466;-66
2022/11/21 14:46:36;;;;;;;;;;;;;;;6.97;68.97;99646.31;5366276;32;34454;-64
2022/11/21 14:49:38;;;;;;;;;;;;;;;6.77;70.11;99644.44;5353062;32;34224;-66
2022/11/21 14:52:40;;;;;;;;;;;;;;;6.70;70.16;99649.94;5363613;32;36667;-66
2022/11/21 14:55:42;;;;;;;;;;;;;;;6.90;70.27;99652.69;5339156;32;34413;-64
2022/11/21 14:58:44;;;;;;;;;;;;;;;6.96;69.43;99649.00;5331292;32;35529;-64
2022/11/21 15:01:53;;;;;;;;;;;;;;;6.89;69.85;99650.09;5362959;32;33203;-65
2022/11/21 15:04:59;;;;;;;;;;;;;;;6.99;69.79;99654.09;5333463;32;32592;-67
2022/11/21 15:08:01;;;;;;;;;;;;;;;6.86;70.73;99656.31;5360152;32;43757;-65
2022/11/21 15:11:23;;;;;;;;;;;;;;;7.18;69.20;99657.75;5346501;32;36184;-66
2022/11/21 15:14:35;;;;;;;;;;;;;;;6.70;70.75;99657.75;5351825;32;34398;-65
2022/11/21 15:17:37;;;;;;;;;;;;;;;6.75;71.58;99669.72;5348284;32;44713;-66
2022/11/21 15:21:01;;;;;;;;;;;;;;;6.81;70.86;99667.81;5332947;32;36974;-66
2022/11/21 15:24:16;;;;;;;;;;;;;;;6.73;71.97;99668.94;5365853;32;46096;-64
2022/11/21 15:27:29;;;;;;;;;;;;;;;6.35;73.66;99667.63;5353798;32;35440;-64
2022/11/21 15:30:31;;;;;;;;;;;;;;;6.98;72.04;99678.53;5344558;32;43006;-66
2022/11/21 15:33:52;;;;;;;;;;;;;;;7.00;71.87;99679.31;5349533;32;34653;-66
2022/11/21 15:37:16;;;;;;;;;;;;;;;7.73;67.53;99665.25;5347357;32;36072;-64
2022/11/21 15:40:18;;;;;;;;;;;;;;;7.27;68.91;99670.47;5354563;32;34813;-71
2022/11/21 15:43:34;;;;;;;;;;;;;;;7.26;69.57;99679.22;5344032;32;34254;-72
2022/11/21 15:46:40;;;;;;;;;;;;;;;7.31;69.38;99677.28;5335008;32;46419;-69
2022/11/21 15:49:42;;;;;;;;;;;;;;;7.29;69.63;99700.03;5362319;32;34958;-70
2022/11/21 15:52:49;;;;;;;;;;;;;;;7.29;69.83;99691.34;5342011;32;34290;-70
2022/11/21 15:55:50;;;;;;;;;;;;;;;7.32;69.84;99697.28;5354623;32;35397;-65
2022/11/21 15:58:53;;;;;;;;;;;;;;;7.39;69.59;99699.69;5344523;32;34372;-65
2022/11/21 16:01:55;;;;;;;;;;;;;;;7.20;70.32;99699.50;5367628;32;35490;-65
2022/11/21 16:04:57;;;;;;;;;;;;;;;7.10;71.16;99695.53;5347140;32;34244;-64
2022/11/21 16:07:59;;;;;;;;;;;;;;;6.73;72.38;99692.44;5339901;32;35731;-66
2022/11/21 16:11:01;;;;;;;;;;;;;;;7.03;71.31;99682.69;5369697;32;43172;-67
2022/11/21 16:14:04;;;;;;;;;;;;;;;7.38;70.93;99677.91;5347774;32;34341;-63
2022/11/21 16:17:06;;;;;;;;;;;;;;;7.87;68.00;99676.91;5371083;32;34649;-65
2022/11/21 16:20:08;;;;;;;;;;;;;;;7.26;69.96;99683.59;5332336;32;34296;-65
2022/11/21 16:23:10;;;;;;;;;;;;;;;7.29;70.53;99675.66;5355615;32;35478;-65
2022/11/21 16:26:12;;;;;;;;;;;;;;;7.25;70.56;99677.53;5356534;32;34233;-65
2022/11/21 16:29:14;;;;;;;;;;;;;;;7.80;68.99;99677.22;5329362;32;35386;-69
2022/11/21 16:32:16;;;;;;;;;;;;;;;7.93;67.84;99662.75;5358753;32;34950;-68
2022/11/21 16:35:18;;;;;;;;;;;;;;;8.07;67.24;99663.03;5334384;32;35004;-69
2022/11/21 16:38:21;;;;;;;;;;;;;;;7.76;67.90;99658.16;5345766;32;34607;-65
2022/11/21 16:41:23;;;;;;;;;;;;;;;7.29;69.69;99659.97;5344967;32;34273;-69
2022/11/21 16:44:26;;;;;;;;;;;;;;;7.56;69.91;99661.53;5360281;32;34506;-68
2022/11/21 16:47:28;;;;;;;;;;;;;;;7.73;68.94;99662.66;5336203;32;34347;-69
2022/11/21 16:50:30;;;;;;;;;;;;;;;7.96;68.39;99657.37;5347496;32;35772;-75
2022/11/21 16:53:32;;;;;;;;;;;;;;;7.88;67.75;99662.91;5351053;32;44795;-69
2022/11/21 16:56:34;;;;;;;;;;;;;;;7.99;67.67;99654.66;5348634;32;34773;-68
2022/11/21 16:59:36;;;;;;;;;;;;;;;8.27;66.62;99666.59;5343575;32;34797;-74